Saint Joseph, Missouri
Current Conditions -  °F | °C
As of 2:14 PM on Friday 19 Dec 2014 (Local Time) from KSTJ Reporting Station
Haze Haze  
Wind Chill: 26°   Ceiling: 1100
Heat Index: 31°   Visibility: 6mi
Dew Point: 30°   Wind: 5mph
Humidity: 96%   Direction: 210°SSW
Pressure: 30.23"   Gusts: NA
Location:  39.76°N, 94.82°W
Report Text: KSTJ 192014Z 21004KT 6SM BR OVC011 M01/M01 A3023 RMK AO2 CIG 005V013 T10061011
Loading
Personal Weather Stations






























Interactive Weather Map New forecast layout! Learn more

10-Day Weather Forecast

Advertisements
Track Severe Weather on mobile